Terminal Aerodrome Forecast
Issued by NWS Des Moines, IA

Home | Current Version | Previous Version | Text Only | Print | Product List | Glossary On
Versions: 1 2 3 4 5 6 7 8 9 10 11 12 13 14 15 16 17 18 19 20 21 22 23 24 25 26
000
FTUS43 KDMX 252320
TAFDSM
TAF
KDSM 252320Z 2600/2624 19006KT P6SM SCT030 BKN060
     FM260500 VRB05KT P6SM VCTS SCT030CB BKN050
     FM260900 19005KT P6SM SCT020 BKN040
     FM261300 19006KT P6SM SCT040 BKN200=

USA.gov is the U.S. government's official web portal to all federal, state and local government web resources and services.